Time;durP1;ratioP1;P1;durP2;ratioP2;P2;SDS_P1;SDS_P2;PMS_P1;PMS_P2;Temp;Humidity;BMP_temperature;BMP_pressure;BME280_temperature;BME280_humidity;BME280_pressure;Samples;Min_cycle;Max_cycle;Signal;HPM_P1;HPM_P2
2022/07/25 00:00:43;;;;;;;6.47;4.27;;;22.50;99.90;;;;;;6076788;23;20207;-89
2022/07/25 00:03:09;;;;;;;5.70;4.37;;;22.40;99.90;;;;;;6100697;23;20528;-88
2022/07/25 00:05:34;;;;;;;4.47;3.70;;;22.50;99.90;;;;;;6076329;23;20156;-88
2022/07/25 00:08:00;;;;;;;6.70;4.03;;;22.40;99.90;;;;;;6101283;23;20160;-88
2022/07/25 00:10:26;;;;;;;6.27;4.13;;;22.40;99.90;;;;;;6100575;23;20191;-88
2022/07/25 00:12:52;;;;;;;6.23;4.70;;;22.40;99.90;;;;;;6100563;23;20227;-88
2022/07/25 00:15:17;;;;;;;9.07;4.33;;;22.40;99.90;;;;;;6076236;23;20200;-89
2022/07/25 00:17:43;;;;;;;4.20;3.40;;;22.30;99.90;;;;;;6100571;23;20191;-88
2022/07/25 00:20:10;;;;;;;6.13;4.57;;;22.30;99.90;;;;;;6101350;23;20156;-90
2022/07/25 00:22:36;;;;;;;7.10;4.17;;;22.20;99.90;;;;;;6100921;23;20207;-90
2022/07/25 00:25:02;;;;;;;5.67;4.37;;;22.20;99.90;;;;;;6100488;23;20199;-89
2022/07/25 00:27:27;;;;;;;6.30;3.87;;;22.00;99.90;;;;;;6124694;23;20199;-90
2022/07/25 00:29:53;;;;;;;4.77;3.73;;;21.90;99.90;;;;;;6077146;23;20195;-90
2022/07/25 00:32:19;;;;;;;6.80;3.80;;;21.90;99.90;;;;;;6101520;23;20194;-90
2022/07/25 00:34:45;;;;;;;4.93;3.97;;;21.80;99.90;;;;;;6076622;23;20239;-90
2022/07/25 00:37:10;;;;;;;6.00;4.03;;;21.80;99.90;;;;;;6124855;23;20215;-90
2022/07/25 00:39:36;;;;;;;6.97;4.17;;;21.80;99.90;;;;;;6077141;23;20200;-90
2022/07/25 00:42:02;;;;;;;5.60;4.03;;;21.80;99.90;;;;;;6098997;23;20688;-90
2022/07/25 00:44:29;;;;;;;6.20;4.43;;;21.80;99.90;;;;;;6048916;23;20222;-90
2022/07/25 00:46:56;;;;;;;8.17;4.33;;;21.70;99.90;;;;;;6097481;23;20547;-90
2022/07/25 00:49:22;;;;;;;5.50;4.50;;;21.70;99.90;;;;;;6071432;23;20196;-89
2022/07/25 00:51:50;;;;;;;11.80;5.53;;;21.60;99.90;;;;;;6048053;23;20208;-90
2022/07/25 00:54:17;;;;;;;8.93;4.50;;;21.50;99.90;;;;;;6048011;23;20188;-90
2022/07/25 00:56:43;;;;;;;6.80;4.00;;;21.40;99.90;;;;;;6071296;23;20164;-89
2022/07/25 00:59:10;;;;;;;7.07;4.40;;;21.30;99.90;;;;;;6071926;23;20188;-89
2022/07/25 01:01:37;;;;;;;6.40;4.87;;;21.20;99.90;;;;;;6071991;23;20204;-91
2022/07/25 01:04:04;;;;;;;5.67;4.50;;;21.10;99.90;;;;;;6073854;23;20192;-90
2022/07/25 01:06:30;;;;;;;5.87;4.70;;;21.10;99.90;;;;;;6049786;23;20519;-90
2022/07/25 01:08:57;;;;;;;6.20;4.80;;;20.90;99.90;;;;;;6050079;23;20192;-90
2022/07/25 01:11:23;;;;;;;8.57;5.23;;;20.90;99.90;;;;;;6050062;23;20164;-90
2022/07/25 01:13:49;;;;;;;5.90;4.80;;;20.90;99.90;;;;;;6049636;23;20212;-90
2022/07/25 01:16:14;;;;;;;6.47;4.53;;;20.80;99.90;;;;;;6025875;23;20328;-90
2022/07/25 01:18:40;;;;;;;7.93;5.37;;;20.70;99.90;;;;;;6073276;23;20200;-90
2022/07/25 01:21:07;;;;;;;7.43;4.97;;;20.70;99.90;;;;;;6025877;23;20227;-89
2022/07/25 01:23:33;;;;;;;7.23;5.00;;;20.60;99.90;;;;;;6049790;23;20165;-88
2022/07/25 01:25:58;;;;;;;7.57;5.97;;;20.60;99.90;;;;;;6050671;23;20165;-88
2022/07/25 01:28:24;;;;;;;8.33;5.17;;;20.60;99.90;;;;;;6049046;23;20215;-88
2022/07/25 01:30:50;;;;;;;8.70;5.70;;;20.70;99.90;;;;;;6025184;23;20196;-88
2022/07/25 01:33:20;;;;;;;8.50;5.47;;;20.70;99.90;;;;;;6049107;23;20259;-88
2022/07/25 01:35:47;;;;;;;8.83;5.23;;;20.60;99.90;;;;;;6049236;23;20161;-88
2022/07/25 01:38:13;;;;;;;8.10;5.27;;;20.70;99.90;;;;;;6073592;23;20165;-88
2022/07/25 01:40:39;;;;;;;8.23;5.10;;;20.80;99.90;;;;;;6064471;23;20216;-88
2022/07/25 01:43:06;;;;;;;5.50;4.70;;;20.80;99.90;;;;;;6125933;23;20282;-88
2022/07/25 01:45:32;;;;;;;10.50;5.70;;;20.80;99.90;;;;;;6101871;23;20200;-88
2022/07/25 01:47:58;;;;;;;7.90;6.03;;;20.90;99.90;;;;;;6077986;23;20188;-88
2022/07/25 01:50:24;;;;;;;7.57;5.53;;;20.90;99.90;;;;;;6101907;23;20168;-88
2022/07/25 01:52:49;;;;;;;8.10;5.37;;;20.90;99.90;;;;;;6101574;23;20204;-88
2022/07/25 01:55:15;;;;;;;9.40;4.93;;;20.90;99.90;;;;;;6101568;23;20208;-88
2022/07/25 01:57:41;;;;;;;8.40;5.77;;;20.80;99.90;;;;;;6126134;23;20203;-88
2022/07/25 02:00:10;;;;;;;9.83;5.23;;;20.80;99.90;;;;;;6126317;23;20572;-88
2022/07/25 02:02:35;;;;;;;5.23;4.57;;;20.80;99.90;;;;;;6101841;23;20165;-88
2022/07/25 02:05:01;;;;;;;7.17;5.37;;;20.70;99.90;;;;;;6078818;23;20633;-88
2022/07/25 02:07:27;;;;;;;5.30;4.47;;;20.50;99.90;;;;;;6101134;23;20224;-88
2022/07/25 02:09:53;;;;;;;9.23;6.17;;;20.40;99.90;;;;;;6101460;23;20211;-88
2022/07/25 02:12:18;;;;;;;9.87;5.50;;;20.30;99.90;;;;;;6077720;23;20206;-88
2022/07/25 02:14:44;;;;;;;8.07;5.53;;;20.40;99.90;;;;;;6077171;23;20167;-88
2022/07/25 02:17:10;;;;;;;7.10;4.83;;;20.40;99.90;;;;;;6102145;23;20236;-88
2022/07/25 02:19:36;;;;;;;7.37;5.97;;;20.50;99.90;;;;;;6101781;23;20196;-89
2022/07/25 02:22:02;;;;;;;9.53;5.27;;;20.50;99.90;;;;;;6101844;23;20530;-88
2022/07/25 02:24:28;;;;;;;9.73;5.17;;;20.60;99.90;;;;;;6125808;23;20199;-89
2022/07/25 02:26:54;;;;;;;8.40;5.10;;;20.70;99.90;;;;;;6101872;23;20188;-89
2022/07/25 02:29:20;;;;;;;7.47;5.00;;;20.70;99.90;;;;;;6126625;23;20167;-88
2022/07/25 02:31:45;;;;;;;7.90;4.63;;;20.80;99.90;;;;;;6126076;23;20203;-89
2022/07/25 02:34:11;;;;;;;8.50;5.67;;;20.70;99.90;;;;;;6100932;23;20204;-89
2022/07/25 02:36:37;;;;;;;7.10;4.70;;;20.60;99.90;;;;;;6077626;23;20256;-89
2022/07/25 02:39:03;;;;;;;7.83;5.67;;;20.30;99.90;;;;;;6077545;23;20195;-89
2022/07/25 02:41:29;;;;;;;6.17;4.93;;;20.10;99.90;;;;;;6125644;23;20200;-88
2022/07/25 02:43:54;;;;;;;5.60;4.53;;;20.00;99.90;;;;;;6126461;23;20168;-89
2022/07/25 02:46:20;;;;;;;7.17;4.90;;;19.80;99.90;;;;;;6101371;23;20624;-89
2022/07/25 02:48:46;;;;;;;7.80;5.50;;;19.70;99.90;;;;;;6126160;23;20254;-89
2022/07/25 02:51:12;;;;;;;7.10;4.80;;;19.70;99.90;;;;;;6077569;23;20211;-89
2022/07/25 02:53:37;;;;;;;7.63;4.80;;;19.80;99.90;;;;;;6077560;23;20192;-89
2022/07/25 02:56:04;;;;;;;5.53;4.57;;;19.70;99.90;;;;;;6102278;23;20488;-89
2022/07/25 02:58:29;;;;;;;8.47;4.97;;;19.70;99.90;;;;;;6077261;23;20196;-89
2022/07/25 03:00:55;;;;;;;8.23;5.40;;;19.70;99.90;;;;;;6101332;23;20270;-88
2022/07/25 03:03:21;;;;;;;8.60;5.57;;;19.80;99.90;;;;;;6101124;23;20192;-88
2022/07/25 03:05:46;;;;;;;11.83;5.90;;;19.90;99.90;;;;;;6100955;23;20170;-88
2022/07/25 03:08:12;;;;;;;7.30;5.57;;;19.90;99.90;;;;;;6077746;23;20167;-88
2022/07/25 03:10:38;;;;;;;9.30;5.10;;;19.90;99.90;;;;;;6077102;23;20534;-88
2022/07/25 03:13:04;;;;;;;10.73;6.63;;;19.90;99.90;;;;;;6076964;23;20208;-88
2022/07/25 03:15:29;;;;;;;5.80;4.30;;;19.90;99.90;;;;;;6101247;23;20617;-88
2022/07/25 03:17:55;;;;;;;6.33;4.47;;;19.90;99.90;;;;;;6101026;23;20688;-88
2022/07/25 03:20:21;;;;;;;6.17;5.00;;;20.00;99.90;;;;;;6125337;23;20163;-87
2022/07/25 03:22:47;;;;;;;8.00;5.20;;;20.00;99.90;;;;;;6100445;23;20543;-87
2022/07/25 03:25:12;;;;;;;7.80;4.87;;;20.10;99.90;;;;;;6100096;23;20807;-88
2022/07/25 03:27:38;;;;;;;6.97;4.90;;;20.20;99.90;;;;;;6076946;23;20199;-89
2022/07/25 03:30:04;;;;;;;13.33;5.30;;;20.20;99.90;;;;;;6077074;23;20251;-89
2022/07/25 03:32:30;;;;;;;11.43;3.77;;;20.30;99.90;;;;;;6124742;23;20180;-89
2022/07/25 03:34:56;;;;;;;6.00;4.70;;;20.40;99.90;;;;;;6077923;23;20259;-89
2022/07/25 03:37:21;;;;;;;7.60;4.53;;;20.50;99.90;;;;;;6077137;23;20571;-89
2022/07/25 03:39:47;;;;;;;7.07;5.37;;;20.50;99.90;;;;;;6125404;23;20200;-89
2022/07/25 03:42:13;;;;;;;11.13;5.07;;;20.50;99.90;;;;;;6077567;23;20223;-89
2022/07/25 03:44:39;;;;;;;8.13;3.90;;;20.60;99.90;;;;;;6077442;23;20465;-89
2022/07/25 03:47:05;;;;;;;6.40;4.23;;;20.60;99.90;;;;;;6102026;23;20160;-90
2022/07/25 03:49:31;;;;;;;9.40;4.73;;;20.60;99.90;;;;;;6100931;23;20577;-89
2022/07/25 03:51:57;;;;;;;8.67;5.20;;;20.60;99.90;;;;;;6077058;23;20207;-90
2022/07/25 03:54:22;;;;;;;7.17;4.97;;;20.70;99.90;;;;;;6125442;23;20192;-89
2022/07/25 03:56:50;;;;;;;6.93;5.10;;;20.70;99.90;;;;;;6100869;23;20206;-89
2022/07/25 03:59:18;;;;;;;7.10;4.73;;;20.70;99.90;;;;;;6101702;23;20578;-88
2022/07/25 04:01:46;;;;;;;7.47;5.43;;;20.60;99.90;;;;;;6125160;23;20638;-90
2022/07/25 04:04:12;;;;;;;7.23;4.70;;;20.40;99.90;;;;;;6100943;23;20571;-89
2022/07/25 04:06:38;;;;;;;5.70;3.93;;;20.20;99.90;;;;;;6100879;23;20262;-89
2022/07/25 04:09:04;;;;;;;4.97;4.27;;;20.00;99.90;;;;;;6124822;23;20247;-88
2022/07/25 04:11:30;;;;;;;7.60;5.50;;;19.70;99.90;;;;;;6124667;23;20152;-88
2022/07/25 04:13:56;;;;;;;5.53;4.40;;;19.70;99.90;;;;;;6077573;23;20191;-89
2022/07/25 04:16:22;;;;;;;7.70;4.73;;;19.80;99.90;;;;;;6100500;23;20202;-90
2022/07/25 04:18:51;;;;;;;9.50;5.33;;;19.80;99.90;;;;;;6124926;23;20275;-91
2022/07/25 04:21:18;;;;;;;7.17;5.00;;;19.90;99.90;;;;;;6100739;23;20720;-90
2022/07/25 04:23:44;;;;;;;6.57;5.30;;;19.80;99.90;;;;;;6100981;23;20164;-91
2022/07/25 04:26:09;;;;;;;7.77;5.20;;;19.80;99.90;;;;;;6101876;23;20263;-90
2022/07/25 04:28:35;;;;;;;8.10;5.87;;;19.80;99.90;;;;;;6076772;23;20278;-91
2022/07/25 04:31:01;;;;;;;6.83;5.53;;;19.70;99.90;;;;;;6076958;23;20531;-90
2022/07/25 04:33:27;;;;;;;8.30;5.70;;;19.80;99.90;;;;;;6076709;23;20405;-90
2022/07/25 04:35:53;;;;;;;9.53;5.70;;;19.80;99.90;;;;;;6100832;23;20192;-90
2022/07/25 04:38:18;;;;;;;9.40;5.63;;;20.00;99.90;;;;;;6125255;23;20164;-89
2022/07/25 04:40:45;;;;;;;7.90;5.67;;;20.10;99.90;;;;;;6076423;23;20220;-90
2022/07/25 04:43:10;;;;;;;7.60;5.47;;;20.20;99.90;;;;;;6100713;23;20276;-90
2022/07/25 04:45:36;;;;;;;8.23;5.53;;;20.40;99.90;;;;;;6100765;23;20215;-91
2022/07/25 04:48:03;;;;;;;9.63;5.77;;;20.50;99.90;;;;;;6100958;23;20188;-91
2022/07/25 04:50:29;;;;;;;7.13;5.60;;;20.60;99.90;;;;;;6076869;23;20157;-89
2022/07/25 04:52:55;;;;;;;10.30;5.87;;;20.70;99.90;;;;;;6100958;23;20184;-90
2022/07/25 04:55:20;;;;;;;11.07;6.00;;;20.80;99.90;;;;;;6100709;23;20202;-90
2022/07/25 04:57:46;;;;;;;9.40;5.97;;;20.80;99.90;;;;;;6100479;23;20196;-91
2022/07/25 05:00:13;;;;;;;7.60;4.90;;;20.90;99.90;;;;;;6124974;23;20239;-91
2022/07/25 05:02:39;;;;;;;7.87;5.33;;;20.90;99.90;;;;;;6125008;23;20192;-90
2022/07/25 05:05:07;;;;;;;8.87;5.67;;;21.00;99.90;;;;;;6077107;23;20160;-91
2022/07/25 05:07:33;;;;;;;6.73;5.17;;;21.10;99.90;;;;;;6077029;23;20219;-91
2022/07/25 05:09:59;;;;;;;11.50;5.20;;;21.10;99.90;;;;;;6100457;23;20195;-90
2022/07/25 05:12:25;;;;;;;7.47;4.70;;;21.20;99.90;;;;;;6100516;23;20227;-90
2022/07/25 05:14:51;;;;;;;10.80;5.67;;;21.30;99.90;;;;;;6100989;23;20215;-90
2022/07/25 05:17:16;;;;;;;9.77;5.33;;;21.40;99.90;;;;;;6077669;23;20160;-91
2022/07/25 05:19:42;;;;;;;8.80;6.00;;;21.50;99.90;;;;;;6076420;23;20204;-91
2022/07/25 05:22:08;;;;;;;8.77;4.93;;;21.60;99.90;;;;;;6100884;23;20196;-90
2022/07/25 05:24:34;;;;;;;8.80;5.07;;;21.70;99.90;;;;;;6100504;23;20200;-91
2022/07/25 05:27:01;;;;;;;7.80;5.07;;;21.70;99.90;;;;;;6124834;23;20192;-90
2022/07/25 05:29:26;;;;;;;9.10;4.43;;;21.70;99.90;;;;;;6077343;23;20578;-90
2022/07/25 05:31:52;;;;;;;8.43;5.30;;;21.70;99.90;;;;;;6100367;23;20195;-90
2022/07/25 05:34:18;;;;;;;8.50;5.00;;;21.70;99.90;;;;;;6100755;23;20243;-90
2022/07/25 05:36:44;;;;;;;10.40;6.23;;;21.90;99.90;;;;;;6124816;23;20710;-90
2022/07/25 05:39:10;;;;;;;8.13;5.70;;;22.20;99.90;;;;;;6100804;23;20206;-91
2022/07/25 05:41:37;;;;;;;11.17;6.17;;;22.90;99.90;;;;;;6076606;23;20212;-91
2022/07/25 05:44:03;;;;;;;8.07;5.93;;;23.70;99.90;;;;;;6127000;23;20574;-91
2022/07/25 05:46:31;;;;;;;10.77;6.60;;;25.70;99.90;;;;;;6124471;23;20279;-91
2022/07/25 05:48:57;;;;;;;8.70;5.88;;;27.20;99.90;;;;;;6126512;23;20220;-90
2022/07/25 05:51:23;;;;;;;6.43;5.35;;;28.60;99.90;;;;;;6126849;23;20199;-91
2022/07/25 05:53:49;;;;;;;9.63;5.95;;;28.30;99.90;;;;;;6077824;23;20196;-91
2022/07/25 05:56:15;;;;;;;6.93;5.25;;;27.50;99.90;;;;;;6102654;23;20165;-91
2022/07/25 05:58:41;;;;;;;8.60;5.82;;;26.50;99.90;;;;;;6126347;23;20227;-90
2022/07/25 06:01:10;;;;;;;12.30;6.13;;;25.90;99.90;;;;;;6102249;23;20199;-90
2022/07/25 06:03:36;;;;;;;8.02;5.45;;;25.70;99.90;;;;;;6102609;23;20191;-90
2022/07/25 06:06:02;;;;;;;9.73;7.13;;;25.70;99.90;;;;;;6077968;23;20700;-91
2022/07/25 06:08:29;;;;;;;7.70;5.65;;;25.40;99.90;;;;;;6102469;23;20172;-89
2022/07/25 06:10:59;;;;;;;11.05;6.57;;;24.80;99.90;;;;;;6078409;23;20204;-89
2022/07/25 06:13:25;;;;;;;12.27;6.53;;;24.50;99.90;;;;;;6101696;23;20200;-90
2022/07/25 06:15:51;;;;;;;10.60;6.57;;;24.30;99.90;;;;;;6102185;23;20196;-89
2022/07/25 06:18:17;;;;;;;8.23;4.97;;;24.10;99.90;;;;;;6126052;23;20196;-90
2022/07/25 06:20:43;;;;;;;8.27;6.22;;;24.00;99.90;;;;;;6126298;23;20171;-90
2022/07/25 06:23:09;;;;;;;6.90;5.35;;;23.70;99.90;;;;;;6102935;23;20168;-92
2022/07/25 06:25:35;;;;;;;7.43;6.00;;;23.50;99.90;;;;;;6102016;23;20539;-92
2022/07/25 06:28:01;;;;;;;8.20;6.13;;;23.50;99.90;;;;;;6102044;23;20200;-91
2022/07/25 06:30:27;;;;;;;10.52;6.63;;;23.50;99.90;;;;;;6101916;23;20203;-92
2022/07/25 06:32:53;;;;;;;8.85;5.75;;;23.40;99.90;;;;;;6126537;23;20549;-92
2022/07/25 06:35:19;;;;;;;10.10;6.75;;;23.30;99.90;;;;;;6102550;23;20160;-91
2022/07/25 06:37:45;;;;;;;9.27;5.70;;;23.30;99.90;;;;;;6077745;23;20200;-91
2022/07/25 06:40:11;;;;;;;12.10;6.57;;;23.20;99.90;;;;;;6100176;23;20578;-92
2022/07/25 06:42:38;;;;;;;6.20;5.47;;;23.40;99.90;;;;;;6072840;23;20255;-91
2022/07/25 06:45:05;;;;;;;8.88;5.88;;;23.70;99.90;;;;;;6025174;23;20224;-91
2022/07/25 06:47:31;;;;;;;8.15;5.65;;;24.00;99.90;;;;;;6048636;23;20165;-91
2022/07/25 06:49:57;;;;;;;7.30;5.28;;;25.20;99.90;;;;;;6073331;23;20157;-91
2022/07/25 06:52:22;;;;;;;8.88;5.20;;;26.20;99.90;;;;;;6025291;23;20713;-92
2022/07/25 06:54:48;;;;;;;7.43;4.53;;;27.40;99.90;;;;;;6025139;23;20209;-91
2022/07/25 06:57:14;;;;;;;5.93;3.50;;;26.90;99.90;;;;;;6025008;23;20636;-90
2022/07/25 06:59:40;;;;;;;8.63;3.20;;;26.20;99.90;;;;;;6024878;23;20157;-90
2022/07/25 07:02:05;;;;;;;8.25;3.13;;;25.40;99.90;;;;;;6026126;23;20583;-88
2022/07/25 07:04:31;;;;;;;4.03;3.10;;;24.90;99.90;;;;;;6024742;23;20222;-93
2022/07/25 07:06:57;;;;;;;3.70;2.65;;;24.20;99.90;;;;;;6025172;23;20196;-89
2022/07/25 07:09:22;;;;;;;2.72;2.50;;;23.90;99.90;;;;;;6048675;23;20188;-90
2022/07/25 07:11:48;;;;;;;4.13;2.00;;;23.60;99.90;;;;;;6024749;23;20201;-91
2022/07/25 07:14:14;;;;;;;3.15;2.40;;;23.40;99.90;;;;;;6049439;23;20181;-92
2022/07/25 07:16:41;;;;;;;2.75;2.00;;;23.20;99.90;;;;;;6048311;23;20264;-91
2022/07/25 07:19:09;;;;;;;1.65;1.48;;;23.00;99.90;;;;;;6049001;23;20203;-92
2022/07/25 07:21:35;;;;;;;1.77;1.67;;;22.90;99.90;;;;;;6049085;23;20495;-92
2022/07/25 07:24:01;;;;;;;2.85;2.15;;;22.90;99.90;;;;;;6024952;23;20220;-92
2022/07/25 07:26:27;;;;;;;5.35;1.95;;;22.60;99.90;;;;;;6025782;23;20180;-92
2022/07/25 07:28:54;;;;;;;4.93;1.50;;;22.50;99.90;;;;;;6024628;23;20240;-91
2022/07/25 07:31:20;;;;;;;1.77;1.60;;;22.30;99.90;;;;;;6048131;23;20218;-91
2022/07/25 07:33:46;;;;;;;2.40;1.50;;;22.20;99.90;;;;;;6023977;23;20279;-92
2022/07/25 07:36:12;;;;;;;3.05;2.13;;;22.20;99.90;;;;;;6047379;23;20193;-92
2022/07/25 07:38:38;;;;;;;2.63;1.77;;;22.20;99.90;;;;;;6024196;23;20494;-91
2022/07/25 07:41:04;;;;;;;2.90;2.00;;;22.00;99.90;;;;;;6068118;23;20208;-91
2022/07/25 07:43:30;;;;;;;3.47;1.60;;;22.00;99.90;;;;;;6100961;23;20196;-91
2022/07/25 07:46:00;;;;;;;1.67;1.57;;;22.00;99.90;;;;;;6076802;23;20199;-90
2022/07/25 07:48:30;;;;;;;3.03;1.63;;;22.00;99.90;;;;;;6101661;23;20192;-90
2022/07/25 07:50:56;;;;;;;2.27;1.93;;;21.90;99.90;;;;;;6100681;23;20243;-90
2022/07/25 07:55:42;;;;;;;2.87;2.23;;;21.90;99.90;;;;;;6101615;23;20176;-91
2022/07/25 07:56:08;;;;;;;2.23;1.67;;;22.00;99.90;;;;;;6126164;23;20180;-92
2022/07/25 07:58:34;;;;;;;2.07;1.50;;;21.90;99.90;;;;;;6076763;23;20274;-91
2022/07/25 08:00:59;;;;;;;1.70;1.60;;;21.80;99.90;;;;;;6077420;23;20196;-91
2022/07/25 08:03:26;;;;;;;1.87;1.37;;;21.80;99.90;;;;;;6076840;23;20512;-92
2022/07/25 08:05:52;;;;;;;2.63;1.80;;;21.90;99.90;;;;;;6076714;23;20192;-91
2022/07/25 08:08:18;;;;;;;4.90;1.90;;;21.90;99.90;;;;;;6077733;23;20171;-91
2022/07/25 08:10:46;;;;;;;2.27;1.87;;;22.00;99.90;;;;;;6100933;23;20626;-91
2022/07/25 08:13:27;;;;;;;2.40;1.90;;;22.10;99.90;;;;;;6100336;23;20220;-91
2022/07/25 08:15:56;;;;;;;4.93;2.07;;;22.50;99.90;;;;;;6125091;23;20198;-91
2022/07/25 08:18:23;;;;;;;3.03;1.83;;;22.80;99.90;;;;;;6125505;23;20199;-90
2022/07/25 08:20:50;;;;;;;2.27;1.50;;;23.20;99.90;;;;;;6101104;23;20203;-92
2022/07/25 08:23:17;;;;;;;1.60;1.40;;;23.50;99.90;;;;;;6126102;23;20214;-89
2022/07/25 08:25:44;;;;;;;3.50;2.30;;;23.90;99.90;;;;;;6124816;23;20207;-91
2022/07/25 08:28:10;;;;;;;3.92;2.13;;;24.40;99.90;;;;;;6077275;23;20220;-91
2022/07/25 08:30:37;;;;;;;2.55;1.70;;;24.40;99.90;;;;;;6124920;23;20568;-91
2022/07/25 08:33:05;;;;;;;6.30;1.77;;;24.20;99.90;;;;;;6100870;23;20208;-92
2022/07/25 08:35:33;;;;;;;3.28;2.40;;;24.10;99.90;;;;;;6125616;23;20482;-91
2022/07/25 08:38:02;;;;;;;2.47;1.75;;;24.00;99.90;;;;;;6101320;23;20167;-91
2022/07/25 08:40:30;;;;;;;2.38;1.60;;;23.90;99.90;;;;;;6125029;23;20235;-92
2022/07/25 08:42:57;;;;;;;2.40;1.20;;;23.90;99.90;;;;;;6076809;23;20641;-93
2022/07/25 08:45:25;;;;;;;2.60;1.63;;;23.70;99.90;;;;;;6077019;23;20218;-91
2022/07/25 08:47:53;;;;;;;1.67;1.50;;;23.40;99.90;;;;;;6077207;23;20721;-92
2022/07/25 08:50:24;;;;;;;1.65;1.35;;;23.00;99.90;;;;;;6101971;23;20469;-89
2022/07/25 08:52:51;;;;;;;1.77;1.33;;;22.90;99.90;;;;;;6124729;23;20340;-92
2022/07/25 08:55:21;;;;;;;3.80;1.80;;;22.80;99.90;;;;;;6115559;23;20215;-92
2022/07/25 08:57:54;;;;;;;1.67;1.52;;;22.60;99.90;;;;;;6124509;23;20655;-93
2022/07/25 09:00:25;;;;;;;2.00;1.75;;;22.60;99.90;;;;;;6124745;23;20188;-91
2022/07/25 09:02:59;;;;;;;5.45;1.70;;;22.60;99.90;;;;;;6125329;23;20191;-91
2022/07/25 09:05:27;;;;;;;3.20;1.57;;;22.30;99.90;;;;;;6125938;23;20144;-91
2022/07/25 09:07:54;;;;;;;3.42;1.40;;;22.00;99.90;;;;;;6100481;23;20715;-93
2022/07/25 09:10:23;;;;;;;3.93;1.70;;;22.00;99.90;;;;;;6077084;23;20192;-92
2022/07/25 09:13:00;;;;;;;5.60;2.13;;;22.10;99.90;;;;;;6124714;23;20200;-91
2022/07/25 09:15:39;;;;;;;1.88;1.60;;;21.90;99.90;;;;;;6125251;23;20519;-93
2022/07/25 09:18:14;;;;;;;4.57;1.53;;;21.90;99.90;;;;;;6102113;23;20207;-93
2022/07/25 09:20:43;;;;;;;4.25;1.90;;;22.20;99.90;;;;;;6102033;23;20148;-92
2022/07/25 09:23:10;;;;;;;4.53;2.28;;;22.50;99.90;;;;;;6127900;23;20453;-92
2022/07/25 09:25:37;;;;;;;4.37;2.00;;;22.60;99.90;;;;;;6126534;23;20196;-93
2022/07/25 09:28:13;;;;;;;10.15;2.00;;;22.50;99.90;;;;;;6102215;23;20223;-92
2022/07/25 09:30:51;;;;;;;4.93;1.70;;;22.80;99.90;;;;;;6126959;23;20206;-90
2022/07/25 09:33:16;;;;;;;3.50;1.52;;;23.00;99.90;;;;;;6104680;23;20203;-94
2022/07/25 09:35:42;;;;;;;5.22;1.58;;;23.40;99.90;;;;;;6078348;23;20294;-94
2022/07/25 09:38:13;;;;;;;2.45;1.40;;;22.90;99.90;;;;;;6079341;23;20180;-94
2022/07/25 09:40:40;;;;;;;5.78;1.38;;;22.70;99.90;;;;;;6101907;23;20237;-92
2022/07/25 09:43:07;;;;;;;2.08;1.73;;;22.70;99.90;;;;;;6102578;23;20207;-93
2022/07/25 09:45:33;;;;;;;4.82;1.52;;;22.70;99.90;;;;;;6126885;23;20191;-92
2022/07/25 09:48:04;;;;;;;2.33;1.63;;;22.80;99.90;;;;;;6102235;23;20195;-92
2022/07/25 09:50:32;;;;;;;2.85;1.88;;;22.70;99.90;;;;;;6126654;23;20160;-90
2022/07/25 09:53:01;;;;;;;4.57;2.38;;;23.10;99.90;;;;;;6103355;23;20188;-95
2022/07/25 09:55:30;;;;;;;3.33;1.70;;;23.50;99.90;;;;;;6128255;23;20196;-93
2022/07/25 09:57:56;;;;;;;3.95;1.83;;;23.90;99.90;;;;;;6126705;23;20191;-92
2022/07/25 10:00:26;;;;;;;5.18;1.92;;;24.60;99.90;;;;;;6078864;23;20279;-92
2022/07/25 10:02:54;;;;;;;2.83;2.08;;;24.40;99.90;;;;;;6126576;23;20192;-94
2022/07/25 10:06:10;;;;;;;3.97;1.45;;;24.30;99.90;;;;;;6127741;23;20239;-94
2022/07/25 10:08:40;;;;;;;6.43;1.92;;;24.30;99.90;;;;;;6113916;23;20203;-94
2022/07/25 10:11:18;;;;;;;4.30;1.92;;;24.50;99.90;;;;;;6103207;23;20578;-94
2022/07/25 10:13:44;;;;;;;4.78;1.67;;;25.20;99.90;;;;;;6126444;23;20203;-92
2022/07/25 10:16:18;;;;;;;7.28;1.75;;;25.40;99.90;;;;;;6126695;23;20216;-92
2022/07/25 10:18:55;;;;;;;1.63;1.52;;;24.80;99.90;;;;;;6126945;23;20259;-93
2022/07/25 10:21:23;;;;;;;3.65;2.33;;;23.70;99.90;;;;;;6126561;23;20242;-93
2022/07/25 10:24:08;;;;;;;1.50;1.40;;;23.30;99.90;;;;;;6102009;23;20195;-92
2022/07/25 10:26:39;;;;;;;3.85;1.38;;;23.60;99.90;;;;;;6126606;23;20218;-92
2022/07/25 10:29:09;;;;;;;4.80;1.70;;;23.90;99.90;;;;;;6102151;23;20195;-89
2022/07/25 10:31:44;;;;;;;2.67;1.50;;;24.40;99.90;;;;;;6077794;23;20663;-88
2022/07/25 10:34:12;;;;;;;5.50;2.20;;;24.00;99.90;;;;;;6101187;23;20243;-88
2022/07/25 10:36:42;;;;;;;5.20;1.73;;;23.50;99.90;;;;;;6127001;23;20251;-88
2022/07/25 10:39:11;;;;;;;2.47;1.45;;;23.20;99.90;;;;;;6125958;23;20571;-89
2022/07/25 10:41:41;;;;;;;4.50;1.98;;;23.00;99.90;;;;;;6125886;23;20207;-89
2022/07/25 10:44:14;;;;;;;8.57;3.95;;;23.00;99.90;;;;;;6127727;23;20242;-88
2022/07/25 10:46:44;;;;;;;3.35;1.85;;;22.80;99.90;;;;;;6101149;23;20338;-87
2022/07/25 10:49:26;;;;;;;5.55;1.98;;;22.80;99.90;;;;;;6125300;23;20196;-87
2022/07/25 10:52:01;;;;;;;3.42;1.77;;;22.90;99.90;;;;;;6101484;23;20191;-88
2022/07/25 10:54:33;;;;;;;4.20;1.55;;;22.60;99.90;;;;;;6101433;23;20278;-90
2022/07/25 10:56:59;;;;;;;2.38;1.40;;;22.50;99.90;;;;;;6125704;23;20202;-88
2022/07/25 10:59:31;;;;;;;6.20;1.65;;;22.40;99.90;;;;;;6101779;23;20247;-89
2022/07/25 11:01:57;;;;;;;4.18;1.80;;;22.60;99.90;;;;;;6125498;23;20251;-89
2022/07/25 11:04:23;;;;;;;3.85;2.03;;;22.70;99.90;;;;;;6101042;23;20200;-87
2022/07/25 11:06:49;;;;;;;3.55;1.52;;;22.80;99.90;;;;;;6100840;23;20202;-89
2022/07/25 11:09:27;;;;;;;8.27;1.75;;;22.60;99.90;;;;;;6101472;23;20807;-88
2022/07/25 11:11:55;;;;;;;3.15;1.70;;;22.60;99.90;;;;;;6115114;23;20194;-88
2022/07/25 11:14:22;;;;;;;4.87;2.10;;;22.50;99.90;;;;;;6126144;23;20184;-86
2022/07/25 11:16:54;;;;;;;5.70;1.80;;;22.40;99.90;;;;;;6125263;23;20200;-88
2022/07/25 11:19:28;;;;;;;3.80;1.52;;;22.70;99.90;;;;;;6125508;23;20303;-90
2022/07/25 11:21:57;;;;;;;3.67;1.95;;;22.90;99.90;;;;;;6125453;23;20722;-90
2022/07/25 11:24:41;;;;;;;4.30;1.45;;;23.30;99.90;;;;;;6125642;23;20191;-89
2022/07/25 11:27:09;;;;;;;1.40;1.30;;;23.50;99.90;;;;;;6125497;23;20195;-90
2022/07/25 11:29:37;;;;;;;1.58;1.40;;;24.10;99.90;;;;;;6101815;23;20590;-90
2022/07/25 11:32:06;;;;;;;3.03;1.75;;;24.00;99.90;;;;;;6125547;23;20161;-92
2022/07/25 11:34:36;;;;;;;3.85;1.98;;;23.70;99.90;;;;;;6124961;23;20747;-87
2022/07/25 11:37:05;;;;;;;5.22;2.15;;;23.30;99.90;;;;;;6124761;23;20211;-88
2022/07/25 11:39:34;;;;;;;2.45;1.55;;;23.40;99.90;;;;;;6125021;23;20653;-86
2022/07/25 11:42:08;;;;;;;4.50;1.60;;;23.30;99.90;;;;;;6124352;23;20212;-88
2022/07/25 11:44:39;;;;;;;4.25;2.00;;;23.10;99.90;;;;;;6125492;23;20165;-88
2022/07/25 11:47:08;;;;;;;4.70;1.80;;;23.20;99.90;;;;;;6125468;23;20570;-89
2022/07/25 11:49:53;;;;;;;1.88;1.33;;;23.30;99.90;;;;;;6125920;23;20203;-88
2022/07/25 11:52:31;;;;;;;5.28;1.60;;;22.90;99.90;;;;;;6124903;23;20641;-91
2022/07/25 11:55:16;;;;;;;3.13;1.70;;;23.20;99.90;;;;;;6125154;23;20279;-93
2022/07/25 11:57:44;;;;;;;2.95;2.33;;;23.20;99.90;;;;;;6125777;23;20202;-92
2022/07/25 12:00:19;;;;;;;1.75;1.40;;;23.40;99.90;;;;;;6125228;23;20191;-92
2022/07/25 12:02:46;;;;;;;2.05;1.50;;;23.50;99.90;;;;;;6125875;23;20198;-94
2022/07/25 12:05:14;;;;;;;7.60;1.88;;;23.70;99.90;;;;;;6126301;23;20156;-92
2022/07/25 12:07:53;;;;;;;3.00;1.70;;;23.80;99.90;;;;;;6125225;23;20199;-93
2022/07/25 12:10:30;;;;;;;6.30;1.98;;;23.90;99.90;;;;;;6127466;23;20700;-96
2022/07/25 12:12:56;;;;;;;4.53;1.13;;;23.70;99.90;;;;;;6126200;23;20204;-92
2022/07/25 12:15:27;;;;;;;3.50;1.35;;;23.60;99.90;;;;;;6101796;23;20192;-93
2022/07/25 12:17:55;;;;;;;1.95;1.58;;;23.70;99.90;;;;;;6125863;23;20575;-89
2022/07/25 12:20:32;;;;;;;6.68;1.40;;;24.00;99.90;;;;;;6126021;23;20164;-92
2022/07/25 12:23:01;;;;;;;5.78;1.63;;;24.30;99.90;;;;;;6125296;23;20183;-88
2022/07/25 12:25:28;;;;;;;1.75;1.58;;;24.30;99.90;;;;;;6124863;23;20206;-89
2022/07/25 12:27:55;;;;;;;2.13;1.48;;;24.00;99.90;;;;;;6100584;23;20536;-87
2022/07/25 12:30:21;;;;;;;5.18;1.45;;;24.40;99.90;;;;;;6100915;23;20346;-90
2022/07/25 12:32:46;;;;;;;3.63;1.52;;;24.70;99.90;;;;;;6076481;23;20207;-89
2022/07/25 12:35:13;;;;;;;4.68;1.73;;;24.40;99.90;;;;;;6077103;23;20250;-89
2022/07/25 12:37:40;;;;;;;1.33;1.23;;;24.50;99.90;;;;;;6101093;23;20196;-89
2022/07/25 12:40:06;;;;;;;2.33;1.08;;;24.80;99.90;;;;;;6100028;23;20196;-90
2022/07/25 12:42:32;;;;;;;3.03;1.50;;;24.20;99.90;;;;;;6047802;23;20197;-88
2022/07/25 12:44:58;;;;;;;5.15;2.33;;;23.70;99.90;;;;;;6047647;23;20275;-91
2022/07/25 12:47:28;;;;;;;2.95;1.40;;;23.70;99.90;;;;;;6048582;23;20165;-89